Time;durP1;ratioP1;P1;durP2;ratioP2;P2;SDS_P1;SDS_P2;PMS_P1;PMS_P2;Temp;Humidity;BMP_temperature;BMP_pressure;BME280_temperature;BME280_humidity;BME280_pressure;Samples;Min_cycle;Max_cycle;Signal;HPM_P1;HPM_P2
2024/01/07 00:00:41;;;;;;;11.05;5.10;;;;;;;1.93;100.00;93133.03;5031036;28;20099;-67
2024/01/07 00:03:08;;;;;;;8.80;4.47;;;;;;;1.91;100.00;93137.25;5030496;28;20061;-67
2024/01/07 00:05:37;;;;;;;9.70;4.70;;;;;;;1.93;100.00;93141.16;5031103;28;20045;-67
2024/01/07 00:08:04;;;;;;;10.13;4.60;;;;;;;1.97;100.00;93139.22;5030273;28;20110;-67
2024/01/07 00:10:31;;;;;;;9.23;4.53;;;;;;;1.92;100.00;93133.41;5030987;28;20053;-67
2024/01/07 00:12:58;;;;;;;8.63;4.10;;;;;;;1.90;100.00;93135.72;5030413;28;20158;-66
2024/01/07 00:15:26;;;;;;;8.88;4.38;;;;;;;1.86;100.00;93148.44;5029306;28;20041;-67
2024/01/07 00:17:53;;;;;;;8.53;4.33;;;;;;;1.89;100.00;93139.56;5030016;28;20060;-68
2024/01/07 00:20:21;;;;;;;8.45;4.47;;;;;;;1.91;100.00;93145.38;5028772;28;20102;-67
2024/01/07 00:22:47;;;;;;;70.32;29.35;;;;;;;1.92;100.00;93149.63;5030898;28;20041;-67
2024/01/07 00:25:14;;;;;;;19.05;8.40;;;;;;;1.95;100.00;93141.53;5030166;28;20056;-67
2024/01/07 00:27:41;;;;;;;9.43;5.07;;;;;;;1.96;100.00;93136.91;5029577;28;20053;-67
2024/01/07 00:30:08;;;;;;;9.50;4.47;;;;;;;1.91;100.00;93134.53;5029809;28;20061;-68
2024/01/07 00:32:35;;;;;;;9.85;4.95;;;;;;;1.93;100.00;93138.44;5029278;28;20041;-67
2024/01/07 00:35:02;;;;;;;11.23;5.40;;;;;;;1.94;100.00;93133.78;5029634;28;20521;-67
2024/01/07 00:37:29;;;;;;;10.73;5.10;;;;;;;1.90;100.00;93136.47;5030513;28;20049;-68
2024/01/07 00:39:56;;;;;;;12.77;5.47;;;;;;;1.80;100.00;93134.50;5030200;28;20498;-67
2024/01/07 00:42:23;;;;;;;14.60;5.93;;;;;;;1.76;100.00;93131.00;5029226;28;21067;-67
2024/01/07 00:44:49;;;;;;;15.68;6.25;;;;;;;1.73;100.00;93132.53;5030191;28;20042;-67
2024/01/07 00:47:16;;;;;;;12.82;5.85;;;;;;;1.74;100.00;93136.78;5029619;28;20147;-67
2024/01/07 00:49:43;;;;;;;12.00;5.10;;;;;;;1.79;100.00;93135.63;5028891;28;20055;-67
2024/01/07 00:52:10;;;;;;;11.95;5.32;;;;;;;1.82;100.00;93121.38;5029316;28;20053;-66
2024/01/07 00:54:37;;;;;;;11.50;5.50;;;;;;;1.76;100.00;93131.78;5030113;28;20487;-68
2024/01/07 00:57:04;;;;;;;11.35;5.68;;;;;;;1.77;100.00;93132.53;5029309;28;20046;-67
2024/01/07 00:59:31;;;;;;;11.63;5.80;;;;;;;1.85;100.00;93136.06;5028681;28;20422;-67
2024/01/07 01:01:57;;;;;;;233.32;94.65;;;;;;;1.87;100.00;93133.75;5029356;28;20049;-66
2024/01/07 01:04:24;;;;;;;44.17;20.08;;;;;;;1.83;100.00;93125.59;5029860;28;20053;-67
2024/01/07 01:06:51;;;;;;;21.97;9.33;;;;;;;1.84;100.00;93140.69;5030183;28;20099;-67
2024/01/07 01:09:18;;;;;;;12.20;6.30;;;;;;;1.85;100.00;93131.44;5029157;28;20072;-67
2024/01/07 01:11:45;;;;;;;12.25;6.30;;;;;;;1.84;100.00;93138.00;5028547;28;20457;-67
2024/01/07 01:14:11;;;;;;;11.27;5.82;;;;;;;1.88;100.00;93133.38;5028873;28;20107;-67
2024/01/07 01:16:38;;;;;;;12.63;6.30;;;;;;;1.79;100.00;93143.75;5029418;28;20059;-67
2024/01/07 01:19:05;;;;;;;12.53;6.23;;;;;;;1.87;100.00;93144.56;5029075;28;20449;-67
2024/01/07 01:21:32;;;;;;;14.10;6.50;;;;;;;1.87;100.00;93142.66;5028546;28;20045;-67
2024/01/07 01:24:00;;;;;;;11.88;6.35;;;;;;;1.92;100.00;93139.59;5028889;28;20422;-66
2024/01/07 01:26:26;;;;;;;13.02;6.43;;;;;;;1.98;100.00;93142.69;5029573;28;20051;-67
2024/01/07 01:28:53;;;;;;;14.15;6.68;;;;;;;1.94;100.00;93147.31;5029427;28;20405;-67
2024/01/07 01:31:20;;;;;;;13.10;6.60;;;;;;;1.95;100.00;93152.38;5027821;28;20414;-68
2024/01/07 01:33:47;;;;;;;15.52;7.07;;;;;;;1.95;100.00;93146.16;5029799;28;20057;-68
2024/01/07 01:36:14;;;;;;;12.60;6.80;;;;;;;1.91;100.00;93145.38;5028817;28;20053;-67
2024/01/07 01:38:40;;;;;;;14.23;6.75;;;;;;;1.99;100.00;93145.03;5029620;28;20046;-67
2024/01/07 01:41:07;;;;;;;14.13;6.72;;;;;;;1.93;100.00;93143.84;5028761;28;20130;-67
2024/01/07 01:43:34;;;;;;;17.13;7.57;;;;;;;2.02;100.00;93145.44;5029035;28;20052;-67
2024/01/07 01:46:02;;;;;;;16.35;8.07;;;;;;;2.00;100.00;93149.28;5027430;28;20059;-67
2024/01/07 01:48:29;;;;;;;14.70;7.35;;;;;;;2.00;100.00;93145.81;5029338;28;20045;-67
2024/01/07 01:50:57;;;;;;;19.77;8.45;;;;;;;1.85;100.00;93152.28;5029266;28;20045;-67
2024/01/07 01:53:29;;;;;;;20.70;9.10;;;;;;;1.93;100.00;93149.25;5028396;28;20231;-67
2024/01/07 01:55:58;;;;;;;23.57;9.10;;;;;;;1.93;100.00;93151.97;5029464;28;20053;-67
2024/01/07 01:58:25;;;;;;;24.65;10.02;;;;;;;1.82;100.00;93148.41;5028369;28;20409;-67
2024/01/07 02:00:52;;;;;;;17.55;7.88;;;;;;;1.67;100.00;93153.00;5029459;28;20064;-68
2024/01/07 02:03:19;;;;;;;30.98;12.18;;;;;;;1.73;100.00;93162.28;5028678;28;20053;-67
2024/01/07 02:05:48;;;;;;;31.25;12.10;;;;;;;1.90;100.00;93158.13;5029328;28;20057;-67
2024/01/07 02:08:15;;;;;;;22.27;9.60;;;;;;;1.88;100.00;93159.66;5028256;28;20042;-67
2024/01/07 02:10:42;;;;;;;17.23;7.85;;;;;;;1.93;100.00;93154.69;5028952;28;20512;-67
2024/01/07 02:13:09;;;;;;;18.83;8.32;;;;;;;1.89;100.00;93151.19;5028255;28;20038;-67
2024/01/07 02:15:36;;;;;;;17.05;8.18;;;;;;;1.82;100.00;93151.13;5028956;28;20146;-67
2024/01/07 02:18:03;;;;;;;17.17;7.82;;;;;;;1.94;100.00;93158.16;5027872;28;20041;-67
2024/01/07 02:20:30;;;;;;;16.20;7.90;;;;;;;2.03;100.00;93155.09;5027744;28;20045;-67
2024/01/07 02:22:57;;;;;;;16.33;7.65;;;;;;;2.05;100.00;93153.53;5027859;28;20045;-67
2024/01/07 02:25:24;;;;;;;16.23;7.60;;;;;;;1.95;100.00;93157.78;5027866;28;20529;-67
2024/01/07 02:27:51;;;;;;;15.60;7.28;;;;;;;1.99;100.00;93161.28;5029104;28;20067;-67
2024/01/07 02:30:18;;;;;;;14.27;6.72;;;;;;;2.07;100.00;93159.34;5028514;28;20413;-67
2024/01/07 02:32:45;;;;;;;18.10;8.40;;;;;;;2.12;100.00;93148.16;5029166;28;20057;-68
2024/01/07 02:35:11;;;;;;;27.15;10.85;;;;;;;2.16;100.00;93159.78;5028106;28;20049;-67
2024/01/07 02:37:38;;;;;;;17.08;8.20;;;;;;;2.20;100.00;93151.69;5028899;28;20509;-68
2024/01/07 02:40:06;;;;;;;18.65;7.97;;;;;;;2.18;100.00;93154.00;5027903;28;20071;-67
2024/01/07 02:42:32;;;;;;;15.77;7.57;;;;;;;2.17;100.00;93155.16;5028950;28;20051;-67
2024/01/07 02:44:59;;;;;;;23.63;9.67;;;;;;;2.15;100.00;93152.84;5028551;28;20119;-66
2024/01/07 02:47:26;;;;;;;15.27;7.93;;;;;;;2.18;100.00;93162.13;5028641;28;20060;-67
2024/01/07 02:49:53;;;;;;;12.55;6.68;;;;;;;2.05;100.00;93158.19;5028843;28;20048;-67
2024/01/07 02:52:20;;;;;;;11.40;5.75;;;;;;;2.00;100.00;93160.09;5028264;28;20052;-67
2024/01/07 02:54:46;;;;;;;11.98;5.93;;;;;;;1.98;100.00;93157.00;5029843;28;20057;-68
2024/01/07 02:57:13;;;;;;;13.90;6.50;;;;;;;2.00;100.00;93146.56;5031599;28;20498;-67
2024/01/07 02:59:40;;;;;;;17.63;7.70;;;;;;;2.05;100.00;93158.19;5032279;28;20060;-67
2024/01/07 03:02:06;;;;;;;19.60;8.30;;;;;;;1.97;100.00;93160.06;5031350;28;20046;-67
2024/01/07 03:04:33;;;;;;;18.63;8.27;;;;;;;1.88;100.00;93152.31;5032359;28;20397;-67
2024/01/07 03:07:00;;;;;;;16.17;7.63;;;;;;;1.91;100.00;93151.56;5031526;28;20064;-66
2024/01/07 03:09:27;;;;;;;15.50;7.37;;;;;;;1.86;100.00;93151.16;5031656;28;20846;-67
2024/01/07 03:11:54;;;;;;;14.48;7.25;;;;;;;1.93;100.00;93157.38;5032148;28;20448;-67
2024/01/07 03:14:21;;;;;;;14.32;7.53;;;;;;;2.03;100.00;93149.69;5031200;28;20049;-67
2024/01/07 03:16:48;;;;;;;13.35;6.93;;;;;;;1.99;100.00;93157.78;5030092;28;20053;-67
2024/01/07 03:19:15;;;;;;;17.52;6.90;;;;;;;2.06;100.00;93155.09;5031222;28;20122;-67
2024/01/07 03:21:42;;;;;;;10.37;5.73;;;;;;;2.14;100.00;93148.56;5031875;28;20052;-68
2024/01/07 03:24:09;;;;;;;11.27;6.05;;;;;;;2.13;100.00;93154.34;5031233;28;20046;-67
2024/01/07 03:26:35;;;;;;;12.55;5.95;;;;;;;2.11;100.00;93153.97;5031871;28;20060;-67
2024/01/07 03:29:02;;;;;;;74.45;30.85;;;;;;;2.15;100.00;93154.75;5030728;28;20049;-67
2024/01/07 03:31:29;;;;;;;28.63;12.52;;;;;;;2.17;100.00;93155.94;5032754;28;20045;-67
2024/01/07 03:33:57;;;;;;;15.13;7.10;;;;;;;2.20;100.00;93152.47;5031731;28;20041;-67
2024/01/07 03:36:24;;;;;;;14.88;7.03;;;;;;;2.24;100.00;93155.19;5030192;28;20591;-67
2024/01/07 03:38:50;;;;;;;14.13;6.60;;;;;;;2.26;100.00;93157.53;5031559;28;20048;-67
2024/01/07 03:41:18;;;;;;;13.00;6.10;;;;;;;2.28;100.00;93164.09;5030728;28;20049;-67
2024/01/07 03:43:48;;;;;;;10.55;5.25;;;;;;;2.23;100.00;93164.44;5031445;28;20053;-67
2024/01/07 03:46:16;;;;;;;11.77;5.97;;;;;;;2.13;100.00;93163.28;5030292;28;20407;-67
2024/01/07 03:48:44;;;;;;;10.95;5.57;;;;;;;2.22;100.00;93159.44;5031428;28;20387;-67
2024/01/07 03:51:11;;;;;;;12.48;6.20;;;;;;;2.22;100.00;93160.19;5030558;28;20067;-67
2024/01/07 03:53:37;;;;;;;11.90;5.88;;;;;;;2.10;100.00;93163.25;5031337;28;20441;-67
2024/01/07 03:56:05;;;;;;;13.20;6.03;;;;;;;2.18;100.00;93160.19;5030758;28;20071;-67
2024/01/07 03:58:32;;;;;;;13.20;5.97;;;;;;;2.24;100.00;93162.53;5031241;28;20057;-68
2024/01/07 04:00:59;;;;;;;12.00;5.63;;;;;;;2.29;100.00;93159.44;5030867;28;20037;-66
2024/01/07 04:03:26;;;;;;;12.48;6.57;;;;;;;2.28;100.00;93161.38;5030993;28;20086;-67
2024/01/07 04:05:52;;;;;;;12.13;5.82;;;;;;;2.27;100.00;93165.22;5030751;28;20076;-68
2024/01/07 04:08:19;;;;;;;11.95;5.93;;;;;;;2.25;100.00;93162.13;5030387;28;20397;-67
2024/01/07 04:10:46;;;;;;;13.00;6.00;;;;;;;2.26;100.00;93160.22;5031133;28;20380;-67
2024/01/07 04:13:13;;;;;;;15.18;7.18;;;;;;;2.16;100.00;93159.78;5030431;28;20056;-67
2024/01/07 04:15:39;;;;;;;15.00;7.65;;;;;;;2.14;100.00;93167.50;5030858;28;20052;-67
2024/01/07 04:18:06;;;;;;;17.25;7.22;;;;;;;2.16;100.00;93162.50;5030008;28;20045;-67
2024/01/07 04:20:33;;;;;;;15.60;7.68;;;;;;;2.24;100.00;93170.66;5030734;28;20404;-67
2024/01/07 04:23:00;;;;;;;17.00;8.40;;;;;;;2.15;100.00;93171.78;5030063;28;20046;-67
2024/01/07 04:25:26;;;;;;;18.13;8.63;;;;;;;2.25;100.00;93174.91;5030186;28;20048;-67
2024/01/07 04:27:53;;;;;;;14.93;7.10;;;;;;;2.26;100.00;93179.94;5030539;28;20048;-67
2024/01/07 04:30:20;;;;;;;15.02;7.10;;;;;;;2.13;100.00;93174.09;5029883;28;20057;-67
2024/01/07 04:32:46;;;;;;;14.50;6.43;;;;;;;1.85;100.00;93171.22;5030464;28;20053;-67
2024/01/07 04:35:13;;;;;;;13.73;6.10;;;;;;;2.06;100.00;93171.34;5029767;28;20054;-67
2024/01/07 04:37:40;;;;;;;14.05;6.43;;;;;;;2.07;100.00;93181.00;5030512;28;20119;-68
2024/01/07 04:40:07;;;;;;;12.90;6.07;;;;;;;2.09;100.00;93186.03;5029919;28;20056;-67
2024/01/07 04:42:34;;;;;;;11.88;5.32;;;;;;;1.98;100.00;93180.59;5030382;28;20079;-68
2024/01/07 04:45:01;;;;;;;10.63;5.50;;;;;;;1.58;100.00;93171.47;5029535;28;20058;-67
2024/01/07 04:47:34;;;;;;;10.83;4.83;;;;;;;1.63;100.00;93176.53;5028504;28;20075;-67
2024/01/07 04:50:01;;;;;;;11.35;4.95;;;;;;;1.89;100.00;93177.44;5029797;28;20502;-66
2024/01/07 04:52:28;;;;;;;11.18;5.20;;;;;;;1.94;100.00;93180.56;5029824;28;20056;-67
2024/01/07 04:54:55;;;;;;;10.23;4.60;;;;;;;1.75;100.00;93180.84;5029875;28;20114;-67
2024/01/07 04:57:22;;;;;;;10.07;4.80;;;;;;;1.84;100.00;93177.81;5029593;28;20041;-67
2024/01/07 04:59:50;;;;;;;9.77;4.30;;;;;;;1.57;100.00;93175.31;5030024;28;20057;-67
2024/01/07 05:02:16;;;;;;;9.57;4.63;;;;;;;1.85;100.00;93187.47;5029293;28;20487;-67
2024/01/07 05:04:43;;;;;;;11.52;4.85;;;;;;;1.74;100.00;93185.47;5028751;28;20094;-67
2024/01/07 05:07:10;;;;;;;9.68;4.40;;;;;;;1.48;100.00;93191.09;5029294;28;20120;-67
2024/01/07 05:09:37;;;;;;;9.20;4.22;;;;;;;1.47;100.00;93192.22;5030082;28;20130;-67
2024/01/07 05:12:04;;;;;;;9.97;4.70;;;;;;;1.32;100.00;93191.38;5028104;28;20163;-67
2024/01/07 05:14:31;;;;;;;8.68;4.57;;;;;;;1.37;100.00;93202.63;5029651;28;20049;-67
2024/01/07 05:16:58;;;;;;;11.13;5.88;;;;;;;1.07;100.00;93196.56;5028022;28;20049;-65
2024/01/07 05:19:24;;;;;;;10.15;4.60;;;;;;;1.27;100.00;93194.41;5029192;28;20045;-67
2024/01/07 05:21:53;;;;;;;11.30;4.97;;;;;;;1.24;100.00;93195.94;5028330;28;20548;-67
2024/01/07 05:24:20;;;;;;;9.90;5.17;;;;;;;1.13;100.00;93195.09;5028683;28;20505;-67
2024/01/07 05:26:46;;;;;;;10.00;5.10;;;;;;;1.17;100.00;93204.00;5028046;28;20420;-68
2024/01/07 05:29:13;;;;;;;9.07;4.50;;;;;;;1.35;100.00;93190.63;5028784;28;20049;-67
2024/01/07 05:31:40;;;;;;;9.35;5.03;;;;;;;1.11;100.00;93198.16;5029063;28;20045;-67
2024/01/07 05:34:07;;;;;;;9.80;4.82;;;;;;;1.01;100.00;93190.72;5030254;28;20045;-67
2024/01/07 05:36:34;;;;;;;9.07;4.73;;;;;;;1.36;100.00;93202.97;5029690;28;20049;-67
2024/01/07 05:39:02;;;;;;;10.20;4.88;;;;;;;1.46;100.00;93199.56;5028629;28;20057;-66
2024/01/07 05:41:33;;;;;;;12.43;5.20;;;;;;;1.48;100.00;93199.22;5024680;28;20037;-69
2024/01/07 05:44:00;;;;;;;14.57;5.30;;;;;;;1.65;100.00;93203.19;5011639;28;20045;-67
2024/01/07 05:46:26;;;;;;;13.95;5.63;;;;;;;1.65;100.00;93206.69;5029453;28;20045;-66
2024/01/07 05:48:53;;;;;;;13.47;5.37;;;;;;;1.66;100.00;93208.22;5029287;28;20434;-67
2024/01/07 05:51:20;;;;;;;10.65;4.88;;;;;;;1.60;100.00;93210.50;5027450;28;20048;-67
2024/01/07 05:53:47;;;;;;;8.65;4.43;;;;;;;1.69;100.00;93217.50;5029338;28;20049;-67
2024/01/07 05:56:13;;;;;;;8.70;3.90;;;;;;;1.77;100.00;93213.69;5027194;28;20050;-66
2024/01/07 05:58:40;;;;;;;8.05;4.47;;;;;;;1.57;100.00;93215.88;5029297;28;20045;-67
2024/01/07 06:01:08;;;;;;;6.87;3.50;;;;;;;1.58;100.00;93212.78;5028147;28;20045;-66
2024/01/07 06:03:35;;;;;;;8.90;4.55;;;;;;;1.59;100.00;93208.97;5029371;28;20045;-67
2024/01/07 06:06:03;;;;;;;8.07;4.50;;;;;;;1.28;100.00;93214.88;5028621;28;20460;-66
2024/01/07 06:08:30;;;;;;;8.77;4.50;;;;;;;1.45;100.00;93218.88;5028841;28;20429;-67
2024/01/07 06:10:57;;;;;;;10.00;4.57;;;;;;;1.34;100.00;93216.09;5029031;28;20049;-67
2024/01/07 06:13:23;;;;;;;7.27;4.20;;;;;;;1.43;100.00;93208.47;5027976;28;20053;-67
2024/01/07 06:15:51;;;;;;;6.70;3.60;;;;;;;1.65;100.00;93220.19;5027561;28;20056;-67
2024/01/07 06:18:18;;;;;;;8.02;3.90;;;;;;;1.70;100.00;93219.06;5027975;28;20180;-67
2024/01/07 06:20:45;;;;;;;7.97;3.70;;;;;;;1.74;100.00;93223.34;5029153;28;20395;-67
2024/01/07 06:23:12;;;;;;;6.65;3.50;;;;;;;1.62;100.00;93222.88;5028805;28;20046;-67
2024/01/07 06:25:39;;;;;;;7.40;3.67;;;;;;;1.44;100.00;93231.63;5028939;28;20046;-67
2024/01/07 06:28:06;;;;;;;7.80;3.67;;;;;;;1.59;100.00;93232.53;5029086;28;20049;-66
2024/01/07 06:30:33;;;;;;;8.13;4.35;;;;;;;1.44;100.00;93236.25;5032464;28;20083;-67
2024/01/07 06:33:00;;;;;;;7.60;3.83;;;;;;;1.36;100.00;93230.78;5032181;28;20106;-66
2024/01/07 06:35:27;;;;;;;8.13;3.70;;;;;;;1.57;100.00;93234.81;5032313;28;20334;-67
2024/01/07 06:37:54;;;;;;;7.83;3.67;;;;;;;1.57;100.00;93234.81;5032781;28;20559;-68
2024/01/07 06:40:22;;;;;;;6.28;3.22;;;;;;;1.65;100.00;93236.44;5030773;28;20037;-67
2024/01/07 06:42:49;;;;;;;7.10;3.85;;;;;;;1.75;100.00;93238.44;5032783;28;20045;-67
2024/01/07 06:45:17;;;;;;;6.18;3.60;;;;;;;1.80;100.00;93237.31;5032097;28;20063;-67
2024/01/07 06:47:44;;;;;;;5.85;3.40;;;;;;;1.78;100.00;93242.31;5032655;28;20041;-67
2024/01/07 06:50:11;;;;;;;7.50;3.57;;;;;;;1.58;100.00;93247.19;5031783;28;20044;-67
2024/01/07 06:52:38;;;;;;;7.13;3.70;;;;;;;1.70;100.00;93246.88;5032144;28;20057;-67
2024/01/07 06:55:05;;;;;;;8.30;4.20;;;;;;;1.68;100.00;93251.13;5031805;28;20422;-67
2024/01/07 06:57:32;;;;;;;8.38;4.13;;;;;;;1.40;100.00;93250.50;5031995;28;20391;-67
2024/01/07 06:59:58;;;;;;;8.80;4.68;;;;;;;1.30;100.00;93258.53;5031950;28;20049;-66
2024/01/07 07:02:25;;;;;;;7.73;4.83;;;;;;;0.99;100.00;93263.28;5031991;28;20374;-67
2024/01/07 07:04:52;;;;;;;8.65;4.45;;;;;;;1.05;100.00;93263.69;5032266;28;20068;-67
2024/01/07 07:07:19;;;;;;;9.07;4.72;;;;;;;1.34;100.00;93259.34;5013796;28;20406;-67
2024/01/07 07:09:46;;;;;;;9.10;4.70;;;;;;;1.37;100.00;93264.78;5031561;28;20049;-68
2024/01/07 07:12:13;;;;;;;9.43;4.82;;;;;;;1.29;100.00;93276.69;5031038;28;20720;-67
2024/01/07 07:14:40;;;;;;;9.67;5.23;;;;;;;1.11;100.00;93270.34;5031711;28;20044;-67
2024/01/07 07:17:07;;;;;;;11.80;4.97;;;;;;;1.03;100.00;93269.50;5031036;28;20052;-67
2024/01/07 07:19:34;;;;;;;11.15;5.78;;;;;;;1.28;100.00;93272.41;5030431;28;20041;-68
2024/01/07 07:22:01;;;;;;;11.13;5.63;;;;;;;1.17;100.00;93285.84;5031346;28;20476;-67
2024/01/07 07:24:28;;;;;;;10.07;5.25;;;;;;;1.25;100.00;93284.00;5031611;28;20053;-68
2024/01/07 07:26:54;;;;;;;9.83;5.40;;;;;;;1.29;100.00;93282.09;5031705;28;20460;-67
2024/01/07 07:29:21;;;;;;;10.90;5.38;;;;;;;1.48;100.00;93280.31;5031090;28;20410;-67
2024/01/07 07:31:48;;;;;;;11.40;6.38;;;;;;;1.58;100.00;93287.75;5031696;28;20413;-68
2024/01/07 07:34:15;;;;;;;11.55;6.38;;;;;;;1.66;100.00;93280.47;5031180;28;20524;-68
2024/01/07 07:36:44;;;;;;;11.73;5.90;;;;;;;1.59;100.00;93286.63;5031204;28;20049;-67
2024/01/07 07:39:13;;;;;;;11.20;5.73;;;;;;;1.28;100.00;93285.94;5031157;28;20045;-67
2024/01/07 07:41:40;;;;;;;10.55;5.32;;;;;;;1.54;100.00;93289.66;5030379;28;20059;-67
2024/01/07 07:44:07;;;;;;;11.85;6.10;;;;;;;1.31;100.00;93289.81;5030935;28;20163;-67
2024/01/07 07:46:34;;;;;;;10.98;5.60;;;;;;;1.63;100.00;93292.03;5031039;28;20045;-68
2024/01/07 07:49:01;;;;;;;12.85;6.50;;;;;;;1.65;100.00;93298.63;5029798;28;20376;-67
2024/01/07 07:51:28;;;;;;;11.43;5.67;;;;;;;1.48;100.00;93293.84;5031029;28;20064;-68
2024/01/07 07:53:55;;;;;;;11.15;5.15;;;;;;;1.66;100.00;93304.81;5031160;28;20375;-68
2024/01/07 07:56:21;;;;;;;12.25;5.95;;;;;;;1.77;100.00;93311.88;5030482;28;20048;-69
2024/01/07 07:58:48;;;;;;;10.40;5.28;;;;;;;1.64;100.00;93299.78;5030845;28;20409;-68
2024/01/07 08:01:16;;;;;;;10.07;5.65;;;;;;;1.88;100.00;93308.47;5029315;28;20049;-68
2024/01/07 08:03:43;;;;;;;10.83;5.27;;;;;;;1.67;100.00;93307.16;5030939;28;20050;-68
2024/01/07 08:06:10;;;;;;;10.55;5.47;;;;;;;1.33;100.00;93309.94;5030591;28;20120;-67
2024/01/07 08:08:38;;;;;;;10.60;5.20;;;;;;;1.50;100.00;93311.25;5030602;28;20426;-68
2024/01/07 08:11:07;;;;;;;11.48;6.18;;;;;;;1.82;100.00;93312.69;5030463;28;20041;-67
2024/01/07 08:13:35;;;;;;;10.88;5.70;;;;;;;1.58;100.00;93306.69;5030742;28;20045;-68
2024/01/07 08:16:04;;;;;;;11.27;6.00;;;;;;;1.88;100.00;93322.00;5030254;28;20102;-67
2024/01/07 08:18:31;;;;;;;15.70;8.63;;;;;;;1.91;100.00;93315.81;5030034;28;20075;-68
2024/01/07 08:20:58;;;;;;;12.35;7.10;;;;;;;1.71;100.00;93323.41;5030801;28;20039;-69
2024/01/07 08:23:25;;;;;;;13.90;7.05;;;;;;;1.74;100.00;93322.66;5029731;28;20503;-66
2024/01/07 08:25:52;;;;;;;11.52;6.50;;;;;;;1.86;100.00;93322.38;5030675;28;20056;-66
2024/01/07 08:28:20;;;;;;;9.63;5.70;;;;;;;1.80;100.00;93313.81;5030169;28;20059;-66
2024/01/07 08:30:47;;;;;;;7.50;4.55;;;;;;;2.05;100.00;93325.97;5030649;28;20346;-66
2024/01/07 08:33:14;;;;;;;13.85;8.18;;;;;;;2.05;100.00;93324.03;5029929;28;20049;-65
2024/01/07 08:35:41;;;;;;;13.23;7.60;;;;;;;2.18;100.00;93321.84;5029984;28;20045;-67
2024/01/07 08:38:08;;;;;;;9.90;5.68;;;;;;;2.21;100.00;93326.47;5029671;28;20406;-67
2024/01/07 08:40:35;;;;;;;13.37;7.70;;;;;;;2.25;100.00;93323.81;5029965;28;20453;-67
2024/01/07 08:43:02;;;;;;;12.73;6.65;;;;;;;2.12;100.00;93323.34;5029668;28;20054;-66
2024/01/07 08:45:29;;;;;;;12.45;6.72;;;;;;;2.08;100.00;93326.00;5030127;28;20056;-67
2024/01/07 08:47:56;;;;;;;10.05;6.13;;;;;;;2.29;100.00;93330.78;5030121;28;20444;-67
2024/01/07 08:50:22;;;;;;;9.40;4.97;;;;;;;2.39;100.00;93327.38;5029573;28;20822;-67
2024/01/07 08:52:49;;;;;;;8.90;5.07;;;;;;;2.52;100.00;93329.78;5029929;28;20139;-67
2024/01/07 08:55:16;;;;;;;10.18;5.60;;;;;;;2.59;100.00;93336.00;5028045;28;20064;-68
2024/01/07 08:57:43;;;;;;;10.82;5.85;;;;;;;2.71;100.00;93334.13;5029842;28;20052;-67
2024/01/07 09:00:10;;;;;;;9.80;6.00;;;;;;;2.58;100.00;93339.88;5029481;28;20362;-67
2024/01/07 09:02:37;;;;;;;8.60;5.38;;;;;;;2.38;100.00;93333.19;5028280;28;20049;-68
2024/01/07 09:05:09;;;;;;;8.27;4.73;;;;;;;2.62;100.00;93334.47;5028119;28;20041;-68
2024/01/07 09:07:36;;;;;;;8.75;4.97;;;;;;;2.59;100.00;93343.34;5029690;28;20052;-68
2024/01/07 09:10:03;;;;;;;7.53;5.15;;;;;;;2.68;100.00;93343.03;5029546;28;20453;-67
2024/01/07 09:12:30;;;;;;;8.27;4.70;;;;;;;2.65;100.00;93347.25;5029431;28;20045;-67
2024/01/07 09:14:56;;;;;;;6.90;4.50;;;;;;;2.88;100.00;93348.91;5029916;28;20049;-68
2024/01/07 09:17:23;;;;;;;8.23;5.00;;;;;;;2.73;100.00;93350.78;5028623;28;20833;-67
2024/01/07 09:19:50;;;;;;;9.20;5.40;;;;;;;2.93;100.00;93348.56;5029448;28;20053;-68
2024/01/07 09:22:18;;;;;;;10.60;6.53;;;;;;;2.68;100.00;93357.34;5029064;28;20206;-67
2024/01/07 09:24:44;;;;;;;11.20;6.05;;;;;;;2.60;100.00;93364.66;5029700;28;20049;-68
2024/01/07 09:27:11;;;;;;;11.13;6.45;;;;;;;2.82;100.00;93362.06;5027866;28;20062;-67
2024/01/07 09:29:38;;;;;;;9.50;5.30;;;;;;;3.06;100.00;93362.53;5029127;28;20050;-67
2024/01/07 09:32:05;;;;;;;7.70;4.65;;;;;;;2.51;100.00;93366.91;5028833;28;20045;-67
2024/01/07 09:34:32;;;;;;;9.15;5.38;;;;;;;2.86;100.00;93364.75;5029152;28;20123;-68
2024/01/07 09:36:59;;;;;;;9.77;5.70;;;;;;;2.84;100.00;93364.38;5028814;28;20452;-67
2024/01/07 09:39:28;;;;;;;8.88;5.30;;;;;;;2.89;100.00;93364.03;5029443;28;20498;-67
2024/01/07 09:41:55;;;;;;;9.97;5.90;;;;;;;2.84;100.00;93367.88;5029277;28;20433;-68
2024/01/07 09:44:21;;;;;;;8.80;5.68;;;;;;;2.83;100.00;93366.31;5028819;28;20045;-67
2024/01/07 09:46:51;;;;;;;10.02;5.90;;;;;;;3.07;100.00;93370.28;5028415;28;20051;-67
2024/01/07 09:49:18;;;;;;;8.82;5.15;;;;;;;3.02;100.00;93359.81;5028297;28;20057;-67
2024/01/07 09:51:48;;;;;;;8.35;4.68;;;;;;;2.98;100.00;93367.94;5029133;28;20057;-67
2024/01/07 09:54:18;;;;;;;7.67;4.20;;;;;;;2.82;100.00;93369.38;5028744;28;20039;-67
2024/01/07 09:56:52;;;;;;;7.00;3.80;;;;;;;2.72;100.00;93368.19;5029152;28;20110;-67
2024/01/07 09:59:20;;;;;;;7.32;4.53;;;;;;;2.68;100.00;93362.75;5028875;28;20055;-67
2024/01/07 10:01:47;;;;;;;9.45;5.40;;;;;;;2.67;100.00;93366.59;5029049;28;20406;-68
2024/01/07 10:04:15;;;;;;;10.88;6.00;;;;;;;2.70;100.00;93363.16;5046102;28;20072;-68
2024/01/07 10:06:43;;;;;;;9.93;5.20;;;;;;;2.67;100.00;93360.41;5032990;28;20388;-68
2024/01/07 10:09:11;;;;;;;8.75;5.25;;;;;;;2.75;100.00;93364.72;5032922;28;20454;-68
2024/01/07 10:11:38;;;;;;;9.52;5.40;;;;;;;2.50;100.00;93362.66;5033024;28;20043;-68
2024/01/07 10:14:05;;;;;;;11.75;7.15;;;;;;;2.17;100.00;93358.97;5032703;28;20037;-67
2024/01/07 10:16:33;;;;;;;13.77;7.60;;;;;;;2.50;100.00;93365.34;5032417;28;20057;-68
2024/01/07 10:18:59;;;;;;;10.87;6.00;;;;;;;2.51;100.00;93368.84;5032392;28;20063;-66
2024/01/07 10:21:26;;;;;;;12.80;7.25;;;;;;;2.34;100.00;93354.81;5031564;28;20045;-66
2024/01/07 10:24:10;;;;;;;10.90;6.05;;;;;;;2.52;100.00;93367.69;5032779;28;20449;-66
2024/01/07 10:26:38;;;;;;;10.55;6.55;;;;;;;2.33;100.00;93360.59;5031760;28;20809;-66
2024/01/07 10:29:07;;;;;;;11.98;6.68;;;;;;;2.15;100.00;93358.56;5032447;28;20049;-66
2024/01/07 10:31:34;;;;;;;9.13;5.37;;;;;;;2.26;100.00;93366.75;5032546;28;20122;-66
2024/01/07 10:34:01;;;;;;;11.25;6.10;;;;;;;2.47;100.00;93365.34;5032337;28;20418;-66
2024/01/07 10:36:29;;;;;;;9.80;6.07;;;;;;;2.50;100.00;93364.59;5032589;28;20042;-68
2024/01/07 10:38:56;;;;;;;9.90;5.63;;;;;;;2.47;100.00;93357.97;5031940;28;20083;-67
2024/01/07 10:41:25;;;;;;;12.00;7.15;;;;;;;2.60;100.00;93363.88;5031565;28;20331;-67
2024/01/07 10:43:51;;;;;;;11.17;6.03;;;;;;;2.50;100.00;93367.31;5032239;28;20050;-67
2024/01/07 10:46:18;;;;;;;10.98;6.32;;;;;;;2.48;100.00;93358.78;5031955;28;20057;-67
2024/01/07 10:48:48;;;;;;;11.13;6.60;;;;;;;2.31;100.00;93374.50;5032233;28;20071;-67
2024/01/07 10:51:16;;;;;;;12.52;7.00;;;;;;;2.39;100.00;93370.72;5032117;28;20440;-67
2024/01/07 10:53:46;;;;;;;11.45;6.32;;;;;;;2.46;100.00;93364.56;5032191;28;20048;-67
2024/01/07 10:56:15;;;;;;;11.57;6.47;;;;;;;2.06;100.00;93368.91;5031704;28;20460;-67
2024/01/07 10:58:42;;;;;;;12.43;7.05;;;;;;;2.04;100.00;93367.75;5031865;28;20049;-67
2024/01/07 11:01:09;;;;;;;12.25;7.07;;;;;;;2.18;100.00;93373.25;5030537;28;20414;-67
2024/01/07 11:03:59;;;;;;;12.45;6.80;;;;;;;2.22;100.00;93373.28;5032207;28;20059;-67
2024/01/07 11:06:35;;;;;;;12.50;7.07;;;;;;;2.02;100.00;93376.22;5030626;28;20854;-67
2024/01/07 11:09:12;;;;;;;12.67;6.40;;;;;;;2.24;100.00;93379.13;5029745;28;20052;-66
2024/01/07 11:11:43;;;;;;;11.85;6.40;;;;;;;2.15;100.00;93369.38;5031810;28;20064;-67
2024/01/07 11:14:36;;;;;;;13.40;7.35;;;;;;;2.18;100.00;93368.63;5031378;28;20547;-67
2024/01/07 11:17:04;;;;;;;12.40;7.05;;;;;;;2.14;100.00;93375.16;5030517;28;20391;-68
2024/01/07 11:19:30;;;;;;;11.77;6.88;;;;;;;2.23;100.00;93370.19;5031872;28;20383;-67
2024/01/07 11:22:29;;;;;;;11.47;6.37;;;;;;;2.11;100.00;93365.06;5032187;28;20037;-67
2024/01/07 11:25:00;;;;;;;11.15;6.43;;;;;;;2.17;100.00;93361.66;5030739;28;20452;-67
2024/01/07 11:27:33;;;;;;;11.07;5.82;;;;;;;2.25;100.00;93361.69;5030697;28;20621;-67